createdAt,value
2023-05-10T00:01:25.766Z,11.37
2023-05-10T00:02:57.696Z,11.33
2023-05-10T00:04:29.949Z,11.30
2023-05-10T00:06:01.843Z,11.27
2023-05-10T00:07:34.056Z,11.25
2023-05-10T00:09:06.002Z,11.25
2023-05-10T00:10:38.595Z,11.24
2023-05-10T00:12:10.519Z,11.22
2023-05-10T00:13:42.382Z,11.22
2023-05-10T00:15:14.213Z,11.23
2023-05-10T00:16:46.383Z,11.21
2023-05-10T00:18:18.205Z,11.19
2023-05-10T00:19:50.056Z,11.20
2023-05-10T00:21:21.924Z,11.16
2023-05-10T00:22:53.788Z,11.13
2023-05-10T00:24:25.606Z,11.09
2023-05-10T00:25:57.546Z,11.08
2023-05-10T00:27:29.359Z,11.08
2023-05-10T00:29:01.419Z,11.05
2023-05-10T00:30:33.285Z,11.01
2023-05-10T00:32:05.497Z,11.00
2023-05-10T00:33:37.351Z,10.98
2023-05-10T00:35:09.531Z,10.98
2023-05-10T00:36:41.593Z,10.91
2023-05-10T00:38:13.948Z,10.89
2023-05-10T00:39:46.811Z,10.87
2023-05-10T00:41:18.712Z,10.83
2023-05-10T00:42:51.349Z,10.79
2023-05-10T00:44:23.241Z,10.78
2023-05-10T00:45:55.844Z,10.77
2023-05-10T00:47:27.857Z,10.72
2023-05-10T00:49:00.227Z,10.71
2023-05-10T00:50:33.382Z,10.71
2023-05-10T00:52:05.394Z,10.68
2023-05-10T00:53:37.371Z,10.61
2023-05-10T00:55:12.619Z,10.60
2023-05-10T00:56:49.810Z,10.61
2023-05-10T00:58:21.665Z,10.59
2023-05-10T00:59:53.719Z,10.57
2023-05-10T01:01:26.081Z,10.54
2023-05-10T01:02:58.264Z,10.51
2023-05-10T01:04:31.686Z,10.49
2023-05-10T01:06:04.494Z,10.48
2023-05-10T01:07:36.336Z,10.46
2023-05-10T01:09:09.302Z,10.43
2023-05-10T01:10:42.295Z,10.42
2023-05-10T01:12:14.356Z,10.39
2023-05-10T01:13:52.325Z,10.38
2023-05-10T01:15:24.381Z,10.39
2023-05-10T01:16:56.450Z,10.39
2023-05-10T01:18:30.680Z,10.41
2023-05-10T01:20:03.482Z,10.42
2023-05-10T01:21:52.249Z,10.37
2023-05-10T01:23:57.579Z,10.38
2023-05-10T01:25:45.464Z,10.38
2023-05-10T01:27:49.572Z,10.38
2023-05-10T01:29:38.295Z,10.38
2023-05-10T01:31:26.268Z,10.38
2023-05-10T01:33:25.994Z,10.37
2023-05-10T01:35:05.916Z,10.39
2023-05-10T01:36:40.690Z,10.39
2023-05-10T01:38:21.977Z,10.38
2023-05-10T01:40:02.391Z,10.35
2023-05-10T01:41:43.275Z,10.38
2023-05-10T01:43:24.266Z,10.41
2023-05-10T01:45:30.137Z,10.37
2023-05-10T01:47:18.455Z,10.38
2023-05-10T01:48:55.224Z,10.39
2023-05-10T01:50:31.169Z,10.38
2023-05-10T01:52:09.612Z,10.38
2023-05-10T01:53:43.549Z,10.38
2023-05-10T01:55:21.527Z,10.37
2023-05-10T01:57:04.362Z,10.40
2023-05-10T01:58:37.763Z,10.42
2023-05-10T02:00:11.890Z,10.42
2023-05-10T02:01:49.273Z,10.44
2023-05-10T02:03:25.205Z,10.40
2023-05-10T02:04:58.396Z,10.41
2023-05-10T02:06:32.036Z,10.40
2023-05-10T02:08:08.635Z,10.38
2023-05-10T02:09:48.574Z,10.36
2023-05-10T02:11:22.041Z,10.34
2023-05-10T02:12:55.060Z,10.32
2023-05-10T02:14:28.132Z,10.29
2023-05-10T02:16:01.043Z,10.27
2023-05-10T02:17:34.063Z,10.23
2023-05-10T02:19:07.060Z,10.21
2023-05-10T02:20:40.117Z,10.21
2023-05-10T02:22:13.347Z,10.14
2023-05-10T02:23:46.538Z,10.14
2023-05-10T02:25:20.569Z,10.11
2023-05-10T02:26:55.631Z,10.10
2023-05-10T02:28:28.617Z,10.06
2023-05-10T02:30:01.753Z,10.02
2023-05-10T02:31:36.422Z,10.01
2023-05-10T02:33:10.984Z,9.98
2023-05-10T02:34:43.635Z,9.94
2023-05-10T02:36:17.500Z,9.92
2023-05-10T02:37:49.921Z,9.93
2023-05-10T02:39:23.356Z,9.93
2023-05-10T02:40:55.916Z,9.91
2023-05-10T02:42:29.371Z,9.89
2023-05-10T02:44:04.010Z,9.89
2023-05-10T02:45:37.631Z,9.86
2023-05-10T02:47:09.472Z,9.84
2023-05-10T02:48:41.637Z,9.83
2023-05-10T02:50:13.690Z,9.79
2023-05-10T02:51:51.936Z,9.83
2023-05-10T02:53:30.295Z,9.82
2023-05-10T02:55:04.687Z,9.82
2023-05-10T02:56:41.830Z,9.82
2023-05-10T02:58:13.702Z,9.82
2023-05-10T02:59:46.254Z,9.85
2023-05-10T03:01:18.353Z,9.83
2023-05-10T03:02:50.225Z,9.84
2023-05-10T03:04:22.163Z,9.80
2023-05-10T03:05:56.920Z,9.80
2023-05-10T03:07:29.284Z,9.78
2023-05-10T03:09:02.374Z,9.77
2023-05-10T03:10:39.230Z,9.75
2023-05-10T03:12:48.640Z,9.70
2023-05-10T03:14:34.541Z,9.70
2023-05-10T03:16:29.572Z,9.69
2023-05-10T03:18:08.740Z,9.71
2023-05-10T03:19:54.827Z,9.70
2023-05-10T03:21:30.857Z,9.69
2023-05-10T03:23:19.444Z,9.68
2023-05-10T03:24:54.767Z,9.67
2023-05-10T03:26:28.433Z,9.66
2023-05-10T03:28:10.007Z,9.63
2023-05-10T03:29:43.387Z,9.64
2023-05-10T03:31:15.822Z,9.63
2023-05-10T03:32:48.025Z,9.59
2023-05-10T03:34:25.802Z,9.61
2023-05-10T03:35:57.977Z,9.59
2023-05-10T03:37:29.773Z,9.58
2023-05-10T03:39:01.709Z,9.59
2023-05-10T03:40:33.647Z,9.56
2023-05-10T03:42:05.647Z,9.57
2023-05-10T03:43:37.830Z,9.56
2023-05-10T03:45:10.889Z,9.54
2023-05-10T03:46:42.775Z,9.54
2023-05-10T03:48:14.942Z,9.55
2023-05-10T03:49:47.539Z,9.55
2023-05-10T03:51:19.458Z,9.54
2023-05-10T03:52:52.971Z,9.53
2023-05-10T03:54:25.888Z,9.54
2023-05-10T03:55:57.799Z,9.55
2023-05-10T03:57:29.734Z,9.54
2023-05-10T03:59:01.844Z,9.50
2023-05-10T04:00:34.054Z,9.49
2023-05-10T04:02:06.325Z,9.50
2023-05-10T04:03:38.288Z,9.45
2023-05-10T04:05:11.298Z,9.43
2023-05-10T04:06:43.118Z,9.44
2023-05-10T04:08:17.553Z,9.43
2023-05-10T04:09:49.408Z,9.40
2023-05-10T04:11:23.078Z,9.45
2023-05-10T04:12:55.115Z,9.44
2023-05-10T04:14:27.077Z,9.45
2023-05-10T04:15:59.078Z,9.47
2023-05-10T04:17:31.057Z,9.48
2023-05-10T04:19:02.932Z,9.49
2023-05-10T04:20:35.048Z,9.46
2023-05-10T04:22:06.852Z,9.50
2023-05-10T04:23:38.669Z,9.53
2023-05-10T04:25:10.873Z,9.53
2023-05-10T04:26:42.704Z,9.54
2023-05-10T04:28:14.541Z,9.59
2023-05-10T04:29:46.359Z,9.60
2023-05-10T04:31:18.488Z,9.62
2023-05-10T04:32:50.664Z,9.65
2023-05-10T04:34:22.689Z,9.66
2023-05-10T04:35:54.478Z,9.67
2023-05-10T04:37:26.332Z,9.71
2023-05-10T04:38:58.136Z,9.71
2023-05-10T04:40:29.958Z,9.78
2023-05-10T04:42:04.017Z,9.83
2023-05-10T04:43:36.063Z,9.86
2023-05-10T04:45:08.306Z,9.88
2023-05-10T04:46:40.386Z,9.89
2023-05-10T04:48:12.559Z,9.87
2023-05-10T04:49:44.390Z,9.93
2023-05-10T04:51:16.235Z,9.97
2023-05-10T04:52:48.063Z,9.99
2023-05-10T04:54:19.886Z,10.03
2023-05-10T04:55:51.737Z,10.00
2023-05-10T04:57:23.582Z,10.03
2023-05-10T04:58:55.420Z,10.08
2023-05-10T05:00:27.220Z,10.12
2023-05-10T05:01:59.579Z,10.22
2023-05-10T05:03:32.022Z,10.31
2023-05-10T05:05:04.088Z,10.46
2023-05-10T05:06:36.038Z,10.64
2023-05-10T05:08:07.852Z,10.86
2023-05-10T05:09:42.681Z,11.14
2023-05-10T05:11:14.500Z,11.47
2023-05-10T05:12:46.330Z,11.77
2023-05-10T05:14:18.140Z,12.10
2023-05-10T05:15:49.982Z,12.44
2023-05-10T05:17:22.089Z,12.81
2023-05-10T05:18:53.962Z,13.16
2023-05-10T05:20:25.835Z,13.51
2023-05-10T05:21:57.660Z,13.86
2023-05-10T05:23:29.596Z,14.19
2023-05-10T05:25:03.050Z,14.51
2023-05-10T05:26:35.009Z,14.82
2023-05-10T05:28:06.799Z,15.15
2023-05-10T05:29:38.614Z,15.42
2023-05-10T05:31:10.500Z,15.73
2023-05-10T05:32:42.479Z,16.00
2023-05-10T05:34:14.313Z,16.23
2023-05-10T05:35:51.801Z,16.48
2023-05-10T05:37:23.925Z,16.68
2023-05-10T05:38:56.161Z,16.89
2023-05-10T05:40:27.970Z,17.04
2023-05-10T05:41:59.829Z,17.27
2023-05-10T05:43:31.654Z,17.44
2023-05-10T05:45:03.615Z,17.64
2023-05-10T05:46:36.268Z,17.83
2023-05-10T05:48:08.138Z,17.93
2023-05-10T05:49:40.806Z,18.10
2023-05-10T05:51:12.617Z,18.28
2023-05-10T05:52:44.466Z,18.48
2023-05-10T05:54:16.497Z,18.54
2023-05-10T05:55:59.609Z,18.69
2023-05-10T05:57:31.581Z,18.85
2023-05-10T05:59:03.436Z,18.97
2023-05-10T06:00:35.446Z,19.08
2023-05-10T06:02:07.313Z,19.10
2023-05-10T06:03:39.167Z,19.24
2023-05-10T06:05:11.117Z,19.40
2023-05-10T06:06:43.500Z,19.47
2023-05-10T06:08:15.532Z,19.59
2023-05-10T06:09:47.327Z,19.68
2023-05-10T06:11:19.137Z,19.77
2023-05-10T06:12:50.978Z,19.84
2023-05-10T06:14:22.867Z,19.85
2023-05-10T06:15:54.648Z,19.93
2023-05-10T06:17:26.554Z,20.08
2023-05-10T06:18:58.367Z,20.09
2023-05-10T06:20:30.172Z,20.18
2023-05-10T06:22:02.210Z,20.21
2023-05-10T06:23:34.074Z,20.25
2023-05-10T06:25:06.725Z,20.32
2023-05-10T06:26:38.544Z,20.45
2023-05-10T06:28:10.874Z,20.51
2023-05-10T06:29:42.804Z,20.52
2023-05-10T06:31:14.731Z,20.52
2023-05-10T06:32:47.243Z,20.59
2023-05-10T06:34:19.175Z,20.67
2023-05-10T06:35:51.129Z,20.70
2023-05-10T06:37:22.926Z,20.71
2023-05-10T06:38:54.738Z,20.74
2023-05-10T06:40:27.330Z,20.79
2023-05-10T06:41:59.138Z,20.83
2023-05-10T06:43:41.041Z,20.89
2023-05-10T06:45:13.903Z,20.99
2023-05-10T06:46:45.704Z,21.01
2023-05-10T06:48:17.675Z,21.10
2023-05-10T06:49:49.841Z,21.10
2023-05-10T06:51:22.516Z,21.14
2023-05-10T06:52:54.324Z,21.24
2023-05-10T06:54:26.250Z,21.37
2023-05-10T06:55:58.064Z,21.37
2023-05-10T06:57:31.712Z,21.44
2023-05-10T06:59:04.253Z,21.55
2023-05-10T07:00:36.252Z,21.65
2023-05-10T07:02:08.316Z,21.74
2023-05-10T07:03:40.268Z,21.82
2023-05-10T07:05:12.981Z,21.89
2023-05-10T07:06:45.283Z,21.97
2023-05-10T07:08:17.121Z,22.09
2023-05-10T07:09:48.949Z,22.18
2023-05-10T07:11:20.793Z,22.27
2023-05-10T07:12:52.741Z,22.33
2023-05-10T07:14:24.673Z,22.39
2023-05-10T07:15:56.502Z,22.49
2023-05-10T07:17:28.409Z,22.61
2023-05-10T07:19:00.800Z,22.71
2023-05-10T07:20:32.663Z,22.85
2023-05-10T07:22:04.471Z,22.95
2023-05-10T07:23:36.298Z,23.07
2023-05-10T07:25:08.513Z,23.14
2023-05-10T07:26:40.304Z,23.20
2023-05-10T07:28:12.110Z,23.28
2023-05-10T07:29:43.968Z,23.34
2023-05-10T07:31:15.769Z,23.36
2023-05-10T07:32:47.692Z,23.27
2023-05-10T07:34:19.634Z,23.29
2023-05-10T07:35:51.447Z,23.36
2023-05-10T07:37:23.276Z,23.42
2023-05-10T07:38:55.114Z,23.43
2023-05-10T07:40:27.016Z,23.39
2023-05-10T07:41:58.867Z,23.38
2023-05-10T07:43:30.669Z,23.39
2023-05-10T07:45:02.464Z,23.40
2023-05-10T07:46:34.346Z,23.48
2023-05-10T07:48:06.392Z,23.50
2023-05-10T07:49:38.232Z,23.53
2023-05-10T07:51:10.662Z,23.56
2023-05-10T07:52:43.173Z,23.59
2023-05-10T07:54:15.571Z,23.59
2023-05-10T07:55:58.160Z,23.61
2023-05-10T07:57:30.014Z,23.64
2023-05-10T07:59:05.018Z,23.63
2023-05-10T08:00:36.855Z,23.68
2023-05-10T08:02:08.701Z,23.74
2023-05-10T08:03:40.628Z,23.77
2023-05-10T08:05:12.647Z,23.83
2023-05-10T08:06:44.487Z,23.90
2023-05-10T08:08:16.346Z,23.96
2023-05-10T08:09:48.251Z,24.00
2023-05-10T08:11:21.688Z,24.02
2023-05-10T08:12:53.619Z,24.05
2023-05-10T08:14:25.477Z,24.03
2023-05-10T08:15:57.766Z,24.12
2023-05-10T08:17:29.701Z,24.16
2023-05-10T08:19:01.575Z,24.26
2023-05-10T08:20:33.622Z,24.30
2023-05-10T08:22:05.725Z,24.34
2023-05-10T08:23:37.606Z,24.40
2023-05-10T08:25:09.497Z,24.45
2023-05-10T08:26:41.561Z,24.50
2023-05-10T08:28:13.386Z,24.58
2023-05-10T08:29:49.991Z,24.68
2023-05-10T08:31:22.519Z,24.71
2023-05-10T08:32:54.371Z,24.75
2023-05-10T08:34:26.520Z,24.81
2023-05-10T08:35:58.482Z,24.89
2023-05-10T08:37:31.404Z,24.93
2023-05-10T08:39:03.678Z,25.01
2023-05-10T08:40:37.847Z,25.01
2023-05-10T08:42:10.486Z,25.03
2023-05-10T08:43:47.257Z,25.02
2023-05-10T08:45:20.911Z,25.01
2023-05-10T08:46:55.495Z,25.03
2023-05-10T08:48:30.549Z,24.97
2023-05-10T08:50:04.153Z,24.93
2023-05-10T08:51:42.600Z,24.92
2023-05-10T08:53:17.472Z,24.90
2023-05-10T08:54:49.968Z,24.94
2023-05-10T08:56:22.066Z,24.93
2023-05-10T08:57:54.588Z,24.97
2023-05-10T08:59:26.785Z,25.01
2023-05-10T09:01:00.318Z,25.04
2023-05-10T09:02:32.524Z,25.08
2023-05-10T09:04:05.565Z,25.14
2023-05-10T09:05:37.641Z,25.18
2023-05-10T09:07:09.519Z,25.23
2023-05-10T09:08:43.296Z,25.25
2023-05-10T09:10:16.448Z,25.21
2023-05-10T09:11:49.116Z,25.28
2023-05-10T09:13:22.892Z,25.34
2023-05-10T09:14:56.177Z,25.38
2023-05-10T09:16:29.745Z,25.34
2023-05-10T09:18:03.493Z,25.35
2023-05-10T09:19:35.336Z,25.38
2023-05-10T09:21:07.245Z,25.35
2023-05-10T09:22:39.535Z,25.40
2023-05-10T09:24:11.376Z,25.39
2023-05-10T09:25:43.464Z,25.40
2023-05-10T09:27:15.276Z,25.39
2023-05-10T09:28:58.630Z,25.37
2023-05-10T09:30:31.915Z,25.36
2023-05-10T09:32:03.898Z,25.35
2023-05-10T09:33:47.102Z,25.32
2023-05-10T09:35:22.021Z,25.36
2023-05-10T09:36:58.966Z,25.34
2023-05-10T09:38:46.713Z,25.34
2023-05-10T09:40:27.243Z,25.37
2023-05-10T09:42:07.005Z,25.35
2023-05-10T09:43:39.562Z,25.30
2023-05-10T09:45:11.403Z,25.24
2023-05-10T09:46:43.373Z,25.20
2023-05-10T09:48:15.333Z,25.15
2023-05-10T09:49:54.167Z,25.12
2023-05-10T09:51:28.087Z,25.11
2023-05-10T09:53:01.565Z,25.11
2023-05-10T09:54:33.916Z,25.15
2023-05-10T09:56:06.314Z,25.20
2023-05-10T09:57:38.256Z,25.25
2023-05-10T09:59:14.031Z,25.31
2023-05-10T10:00:49.090Z,25.33
2023-05-10T10:02:21.070Z,25.35
2023-05-10T10:03:54.170Z,25.38
2023-05-10T10:05:36.425Z,25.36
2023-05-10T10:07:08.638Z,25.41
2023-05-10T10:08:40.575Z,25.44
2023-05-10T10:10:13.602Z,25.45
2023-05-10T10:11:45.422Z,25.43
2023-05-10T10:13:18.453Z,25.45
2023-05-10T10:14:51.686Z,25.49
2023-05-10T10:16:24.222Z,25.47
2023-05-10T10:17:56.207Z,25.43
2023-05-10T10:19:28.227Z,25.43
2023-05-10T10:21:00.279Z,25.39
2023-05-10T10:22:32.159Z,25.40
2023-05-10T10:24:06.852Z,25.37
2023-05-10T10:25:39.628Z,25.34
2023-05-10T10:27:20.537Z,25.33
2023-05-10T10:29:01.438Z,25.34
2023-05-10T10:30:49.779Z,25.29
2023-05-10T10:32:38.797Z,25.30
2023-05-10T10:34:14.183Z,25.31
2023-05-10T10:35:47.725Z,25.28
2023-05-10T10:37:19.921Z,25.26
2023-05-10T10:39:02.584Z,25.26
2023-05-10T10:40:35.351Z,25.28
2023-05-10T10:42:07.252Z,25.28
2023-05-10T10:43:39.101Z,25.24
2023-05-10T10:45:14.872Z,25.31
2023-05-10T10:46:59.816Z,25.27
2023-05-10T10:48:31.797Z,25.26
2023-05-10T10:50:06.985Z,25.30
2023-05-10T10:52:14.698Z,25.22
2023-05-10T10:53:49.224Z,25.24
2023-05-10T10:55:27.261Z,25.25
2023-05-10T10:57:13.643Z,25.20
2023-05-10T10:58:54.967Z,25.17
2023-05-10T11:00:32.265Z,25.19
2023-05-10T11:02:04.165Z,25.20
2023-05-10T11:03:35.992Z,25.19
2023-05-10T11:05:43.754Z,25.15
2023-05-10T11:07:19.019Z,25.18
2023-05-10T11:08:53.866Z,25.24
2023-05-10T11:10:27.246Z,25.23
2023-05-10T11:12:01.395Z,25.21
2023-05-10T11:13:40.489Z,25.20
2023-05-10T11:15:12.387Z,25.19
2023-05-10T11:16:45.741Z,25.20
2023-05-10T11:18:26.777Z,25.13
2023-05-10T11:20:07.819Z,25.10
2023-05-10T11:22:05.978Z,25.09
2023-05-10T11:23:40.716Z,25.13
2023-05-10T11:25:12.598Z,25.13
2023-05-10T11:26:44.808Z,25.12
2023-05-10T11:28:19.432Z,25.08
2023-05-10T11:29:54.025Z,25.10
2023-05-10T11:31:28.125Z,25.08
2023-05-10T11:33:00.021Z,25.06
2023-05-10T11:34:36.060Z,25.04
2023-05-10T11:36:12.340Z,25.06
2023-05-10T11:37:49.114Z,25.11
2023-05-10T11:39:21.791Z,25.07
2023-05-10T11:40:54.597Z,24.97
2023-05-10T11:42:26.436Z,24.95
2023-05-10T11:43:59.455Z,24.92
2023-05-10T11:45:34.600Z,24.91
2023-05-10T11:47:06.675Z,24.90
2023-05-10T11:48:42.224Z,24.89
2023-05-10T11:50:14.182Z,24.87
2023-05-10T11:51:46.021Z,24.79
2023-05-10T11:53:17.893Z,24.69
2023-05-10T11:54:53.757Z,24.66
2023-05-10T11:56:28.353Z,24.66
2023-05-10T11:58:02.766Z,24.53
2023-05-10T11:59:34.553Z,24.54
2023-05-10T12:01:08.390Z,24.57
2023-05-10T12:02:40.626Z,24.57
2023-05-10T12:04:12.784Z,24.56
2023-05-10T12:05:44.859Z,24.53
2023-05-10T12:07:17.508Z,24.56
2023-05-10T12:08:54.837Z,24.56
2023-05-10T12:10:28.112Z,24.56
2023-05-10T12:11:59.965Z,24.61
2023-05-10T12:13:31.846Z,24.63
2023-05-10T12:15:04.535Z,24.59
2023-05-10T12:16:37.376Z,24.63
2023-05-10T12:18:11.554Z,24.64
2023-05-10T12:19:44.967Z,24.69
2023-05-10T12:21:16.871Z,24.64
2023-05-10T12:22:54.438Z,24.64
2023-05-10T12:24:26.648Z,24.67
2023-05-10T12:26:05.411Z,24.68
2023-05-10T12:27:37.466Z,24.70
2023-05-10T12:29:20.153Z,24.69
2023-05-10T12:30:54.463Z,24.64
2023-05-10T12:32:42.876Z,24.58
2023-05-10T12:34:41.636Z,24.53
2023-05-10T12:36:15.595Z,24.52
2023-05-10T12:37:47.655Z,24.47
2023-05-10T12:39:19.528Z,24.37
2023-05-10T12:40:51.445Z,24.24
2023-05-10T12:42:24.410Z,24.13
2023-05-10T12:43:56.238Z,23.97
2023-05-10T12:45:28.081Z,23.86
2023-05-10T12:46:59.897Z,23.79
2023-05-10T12:48:32.694Z,23.71
2023-05-10T12:50:05.868Z,23.60
2023-05-10T12:51:37.668Z,23.50
2023-05-10T12:53:09.917Z,23.45
2023-05-10T12:54:41.844Z,23.34
2023-05-10T12:56:13.665Z,23.28
2023-05-10T12:57:45.556Z,23.22
2023-05-10T12:59:17.580Z,23.17
2023-05-10T13:00:49.443Z,23.11
2023-05-10T13:02:22.296Z,23.10
2023-05-10T13:03:54.314Z,23.06
2023-05-10T13:05:26.124Z,23.05
2023-05-10T13:07:00.069Z,23.04
2023-05-10T13:08:34.740Z,23.01
2023-05-10T13:10:09.456Z,23.01
2023-05-10T13:11:41.335Z,23.00
2023-05-10T13:13:13.211Z,22.99
2023-05-10T13:14:45.039Z,22.96
2023-05-10T13:16:16.870Z,22.96
2023-05-10T13:17:48.765Z,22.98
2023-05-10T13:19:21.137Z,22.98
2023-05-10T13:20:52.952Z,22.98
2023-05-10T13:22:36.362Z,22.99
2023-05-10T13:24:12.214Z,23.00
2023-05-10T13:25:44.020Z,23.02
2023-05-10T13:27:15.848Z,23.04
2023-05-10T13:28:47.684Z,23.07
2023-05-10T13:30:19.622Z,23.09
2023-05-10T13:31:51.533Z,23.14
2023-05-10T13:33:23.421Z,23.18
2023-05-10T13:34:56.273Z,23.24
2023-05-10T13:36:28.100Z,23.30
2023-05-10T13:37:59.946Z,23.38
2023-05-10T13:39:34.496Z,23.45
2023-05-10T13:41:06.490Z,23.54
2023-05-10T13:42:38.698Z,23.63
2023-05-10T13:44:10.630Z,23.72
2023-05-10T13:45:42.428Z,23.79
2023-05-10T13:47:14.253Z,23.87
2023-05-10T13:48:46.094Z,23.96
2023-05-10T13:50:18.207Z,24.02
2023-05-10T13:51:50.067Z,24.11
2023-05-10T13:53:22.286Z,24.18
2023-05-10T13:54:56.109Z,24.26
2023-05-10T13:56:28.081Z,24.34
2023-05-10T13:57:59.897Z,24.41
2023-05-10T13:59:32.928Z,24.47
2023-05-10T14:01:05.932Z,24.54
2023-05-10T14:02:38.050Z,24.59
2023-05-10T14:04:11.654Z,24.65
2023-05-10T14:05:43.760Z,24.71
2023-05-10T14:07:15.578Z,24.76
2023-05-10T14:08:47.406Z,24.82
2023-05-10T14:10:19.429Z,24.85
2023-05-10T14:11:51.245Z,24.87
2023-05-10T14:13:23.234Z,24.92
2023-05-10T14:14:55.062Z,24.96
2023-05-10T14:16:27.592Z,25.02
2023-05-10T14:17:59.655Z,25.08
2023-05-10T14:19:33.707Z,25.12
2023-05-10T14:21:05.605Z,25.17
2023-05-10T14:22:37.447Z,25.20
2023-05-10T14:24:09.434Z,25.23
2023-05-10T14:25:41.971Z,25.24
2023-05-10T14:27:14.224Z,25.26
2023-05-10T14:28:46.143Z,25.25
2023-05-10T14:30:18.344Z,25.26
2023-05-10T14:31:51.174Z,25.24
2023-05-10T14:33:23.212Z,25.18
2023-05-10T14:34:55.046Z,25.13
2023-05-10T14:36:26.923Z,25.04
2023-05-10T14:37:59.654Z,24.98
2023-05-10T14:39:31.592Z,24.88
2023-05-10T14:41:03.418Z,24.81
2023-05-10T14:42:35.263Z,24.72
2023-05-10T14:44:07.131Z,24.64
2023-05-10T14:45:39.007Z,24.59
2023-05-10T14:47:12.070Z,24.53
2023-05-10T14:48:44.226Z,24.50
2023-05-10T14:50:24.961Z,24.47
2023-05-10T14:52:06.863Z,24.41
2023-05-10T14:53:38.710Z,24.36
2023-05-10T14:55:11.144Z,24.29
2023-05-10T14:56:43.053Z,24.25
2023-05-10T14:58:14.842Z,24.19
2023-05-10T14:59:46.650Z,24.12
2023-05-10T15:01:18.791Z,24.08
2023-05-10T15:02:51.138Z,24.04
2023-05-10T15:04:24.162Z,24.00
2023-05-10T15:05:58.745Z,23.96
2023-05-10T15:07:30.576Z,23.88
2023-05-10T15:09:04.466Z,23.81
2023-05-10T15:10:37.910Z,23.77
2023-05-10T15:12:09.718Z,23.71
2023-05-10T15:13:41.512Z,23.65
2023-05-10T15:15:13.308Z,23.59
2023-05-10T15:16:45.096Z,23.50
2023-05-10T15:18:17.084Z,23.42
2023-05-10T15:19:50.411Z,23.35
2023-05-10T15:21:22.704Z,23.25
2023-05-10T15:22:54.507Z,23.17
2023-05-10T15:24:26.610Z,23.11
2023-05-10T15:25:58.509Z,23.08
2023-05-10T15:27:30.302Z,23.02
2023-05-10T15:29:02.268Z,23.00
2023-05-10T15:30:34.219Z,22.99
2023-05-10T15:32:06.192Z,23.00
2023-05-10T15:33:39.116Z,23.01
2023-05-10T15:35:11.640Z,23.00
2023-05-10T15:36:43.443Z,23.00
2023-05-10T15:38:16.121Z,23.00
2023-05-10T15:39:48.275Z,23.02
2023-05-10T15:41:20.081Z,23.03
2023-05-10T15:42:52.288Z,23.06
2023-05-10T15:44:24.317Z,23.11
2023-05-10T15:45:56.095Z,23.16
2023-05-10T15:47:30.817Z,23.20
2023-05-10T15:49:02.722Z,23.24
2023-05-10T15:50:34.518Z,23.25
2023-05-10T15:52:06.595Z,23.25
2023-05-10T15:53:39.854Z,23.25
2023-05-10T15:55:16.327Z,23.22
2023-05-10T15:56:48.239Z,23.18
2023-05-10T15:58:20.602Z,23.12
2023-05-10T15:59:52.678Z,23.04
2023-05-10T16:01:24.587Z,22.95
2023-05-10T16:02:56.569Z,22.86
2023-05-10T16:04:28.470Z,22.76
2023-05-10T16:06:01.072Z,22.65
2023-05-10T16:07:34.397Z,22.55
2023-05-10T16:09:06.223Z,22.42
2023-05-10T16:10:38.264Z,22.30
2023-05-10T16:12:10.136Z,22.19
2023-05-10T16:13:42.094Z,22.06
2023-05-10T16:15:14.062Z,21.92
2023-05-10T16:16:46.321Z,21.78
2023-05-10T16:18:18.298Z,21.67
2023-05-10T16:19:50.169Z,21.55
2023-05-10T16:21:22.517Z,21.43
2023-05-10T16:22:54.446Z,21.32
2023-05-10T16:24:26.507Z,21.21
2023-05-10T16:25:58.636Z,21.11
2023-05-10T16:27:30.574Z,21.02
2023-05-10T16:29:02.392Z,20.91
2023-05-10T16:30:34.264Z,20.83
2023-05-10T16:32:06.126Z,20.73
2023-05-10T16:33:37.919Z,20.65
2023-05-10T16:35:10.000Z,20.56
2023-05-10T16:36:41.865Z,20.49
2023-05-10T16:38:13.751Z,20.42
2023-05-10T16:39:45.638Z,20.35
2023-05-10T16:41:17.469Z,20.27
2023-05-10T16:42:49.270Z,20.20
2023-05-10T16:44:22.421Z,20.13
2023-05-10T16:45:56.586Z,20.06
2023-05-10T16:47:28.402Z,19.99
2023-05-10T16:49:00.570Z,19.90
2023-05-10T16:50:32.497Z,19.83
2023-05-10T16:52:04.304Z,19.74
2023-05-10T16:53:36.488Z,19.65
2023-05-10T16:55:08.804Z,19.55
2023-05-10T16:56:41.082Z,19.47
2023-05-10T16:58:12.892Z,19.39
2023-05-10T16:59:44.690Z,19.29
2023-05-10T17:01:17.054Z,19.21
2023-05-10T17:02:49.437Z,19.12
2023-05-10T17:04:21.460Z,19.05
2023-05-10T17:05:53.351Z,18.96
2023-05-10T17:07:26.385Z,18.88
2023-05-10T17:08:58.330Z,18.80
2023-05-10T17:10:30.164Z,18.72
2023-05-10T17:12:03.926Z,18.65
2023-05-10T17:13:35.743Z,18.57
2023-05-10T17:15:08.258Z,18.51
2023-05-10T17:16:40.320Z,18.44
2023-05-10T17:18:12.161Z,18.36
2023-05-10T17:19:46.941Z,18.28
2023-05-10T17:21:18.790Z,18.21
2023-05-10T17:22:51.015Z,18.15
2023-05-10T17:24:22.902Z,18.07
2023-05-10T17:25:54.704Z,18.00
2023-05-10T17:27:28.125Z,17.93
2023-05-10T17:28:59.994Z,17.88
2023-05-10T17:30:32.933Z,17.81
2023-05-10T17:32:05.387Z,17.76
2023-05-10T17:33:37.243Z,17.71
2023-05-10T17:35:09.230Z,17.65
2023-05-10T17:36:41.097Z,17.59
2023-05-10T17:38:13.111Z,17.54
2023-05-10T17:39:44.961Z,17.51
2023-05-10T17:41:17.280Z,17.46
2023-05-10T17:42:49.350Z,17.41
2023-05-10T17:44:21.184Z,17.37
2023-05-10T17:45:53.187Z,17.32
2023-05-10T17:47:25.234Z,17.28
2023-05-10T17:48:57.119Z,17.24
2023-05-10T17:50:28.941Z,17.18
2023-05-10T17:52:00.822Z,17.15
2023-05-10T17:53:32.820Z,17.10
2023-05-10T17:55:04.965Z,17.07
2023-05-10T17:56:36.758Z,17.02
2023-05-10T17:58:11.061Z,16.98
2023-05-10T17:59:42.891Z,16.93
2023-05-10T18:01:14.724Z,16.90
2023-05-10T18:02:46.665Z,16.86
2023-05-10T18:04:21.849Z,16.82
2023-05-10T18:05:55.488Z,16.80
2023-05-10T18:07:29.486Z,16.76
2023-05-10T18:09:01.694Z,16.68
2023-05-10T18:10:34.071Z,16.65
2023-05-10T18:12:06.359Z,16.62
2023-05-10T18:13:38.471Z,16.59
2023-05-10T18:15:10.754Z,16.54
2023-05-10T18:16:43.358Z,16.50
2023-05-10T18:18:15.397Z,16.46
2023-05-10T18:19:47.245Z,16.41
2023-05-10T18:21:19.159Z,16.36
2023-05-10T18:22:51.043Z,16.32
2023-05-10T18:24:30.437Z,16.28
2023-05-10T18:26:09.308Z,16.24
2023-05-10T18:27:41.156Z,16.19
2023-05-10T18:29:13.060Z,16.15
2023-05-10T18:30:45.110Z,16.10
2023-05-10T18:32:16.944Z,16.05
2023-05-10T18:33:48.763Z,16.00
2023-05-10T18:35:20.828Z,15.94
2023-05-10T18:36:53.176Z,15.90
2023-05-10T18:38:25.317Z,15.84
2023-05-10T18:39:57.917Z,15.80
2023-05-10T18:41:29.769Z,15.74
2023-05-10T18:43:01.575Z,15.68
2023-05-10T18:44:33.390Z,15.60
2023-05-10T18:46:05.221Z,15.54
2023-05-10T18:47:37.052Z,15.48
2023-05-10T18:49:08.896Z,15.42
2023-05-10T18:50:40.736Z,15.35
2023-05-10T18:52:13.228Z,15.29
2023-05-10T18:53:45.028Z,15.23
2023-05-10T18:55:17.319Z,15.18
2023-05-10T18:56:50.011Z,15.13
2023-05-10T18:58:22.378Z,15.05
2023-05-10T18:59:54.193Z,15.00
2023-05-10T19:01:26.258Z,14.94
2023-05-10T19:02:58.208Z,14.89
2023-05-10T19:04:30.031Z,14.84
2023-05-10T19:06:02.114Z,14.79
2023-05-10T19:07:34.039Z,14.75
2023-05-10T19:09:06.118Z,14.68
2023-05-10T19:10:38.230Z,14.65
2023-05-10T19:12:10.042Z,14.57
2023-05-10T19:13:41.839Z,14.51
2023-05-10T19:15:15.222Z,14.46
2023-05-10T19:16:49.132Z,14.39
2023-05-10T19:18:22.500Z,14.34
2023-05-10T19:19:55.637Z,14.27
2023-05-10T19:21:27.747Z,14.20
2023-05-10T19:23:09.881Z,14.12
2023-05-10T19:24:42.304Z,14.07
2023-05-10T19:26:14.180Z,13.99
2023-05-10T19:27:46.177Z,13.93
2023-05-10T19:29:18.093Z,13.86
2023-05-10T19:30:50.502Z,13.80
2023-05-10T19:32:24.595Z,13.74
2023-05-10T19:33:59.937Z,13.71
2023-05-10T19:35:32.577Z,13.66
2023-05-10T19:37:04.458Z,13.64
2023-05-10T19:38:36.510Z,13.61
2023-05-10T19:40:09.666Z,13.59
2023-05-10T19:41:41.596Z,13.59
2023-05-10T19:43:13.653Z,13.56
2023-05-10T19:44:45.530Z,13.55
2023-05-10T19:46:18.680Z,13.55
2023-05-10T19:47:52.110Z,13.55
2023-05-10T19:49:25.323Z,13.56
2023-05-10T19:51:05.654Z,13.56
2023-05-10T19:52:38.866Z,13.57
2023-05-10T19:54:10.759Z,13.58
2023-05-10T19:55:42.699Z,13.60
2023-05-10T19:57:14.593Z,13.61
2023-05-10T19:58:46.448Z,13.61
2023-05-10T20:00:18.423Z,13.61
2023-05-10T20:01:50.218Z,13.64
2023-05-10T20:03:22.120Z,13.64
2023-05-10T20:04:54.085Z,13.65
2023-05-10T20:06:25.954Z,13.64
2023-05-10T20:07:57.946Z,13.64
2023-05-10T20:09:29.767Z,13.63
2023-05-10T20:11:03.898Z,13.63